Time;durP1;ratioP1;P1;durP2;ratioP2;P2;SDS_P1;SDS_P2;PMS_P1;PMS_P2;Temp;Humidity;BMP_temperature;BMP_pressure;BME280_temperature;BME280_humidity;BME280_pressure;Samples;Min_cycle;Max_cycle;Signal;HPM_P1;HPM_P2
2021/06/16 00:00:53;;;;;;;12.50;7.97;;;22.00;67.40;;;;;;6198487;23;20402;-89
2021/06/16 00:03:19;;;;;;;11.50;8.93;;;21.90;67.60;;;;;;6201286;23;20489;-90
2021/06/16 00:05:46;;;;;;;12.80;7.83;;;21.90;68.40;;;;;;6200167;23;20420;-89
2021/06/16 00:08:13;;;;;;;11.13;8.20;;;21.90;68.50;;;;;;6213568;23;20479;-87
2021/06/16 00:10:40;;;;;;;12.00;8.10;;;21.90;68.50;;;;;;6212811;23;20404;-88
2021/06/16 00:13:07;;;;;;;9.87;7.67;;;21.90;68.70;;;;;;6211807;23;20432;-87
2021/06/16 00:15:36;;;;;;;13.37;8.03;;;22.00;69.00;;;;;;6212387;23;20425;-88
2021/06/16 00:18:07;;;;;;;9.47;7.73;;;21.80;69.20;;;;;;6211599;23;20406;-89
2021/06/16 02:11:56;;;;;;;8.50;7.40;;;20.40;84.70;;;;;;6231694;23;20434;-88
2021/06/16 02:14:25;;;;;;;9.57;7.40;;;20.40;84.80;;;;;;6218590;23;20480;-87
2021/06/16 02:16:56;;;;;;;10.87;7.50;;;20.40;85.30;;;;;;6197064;23;20479;-87
2021/06/16 02:19:27;;;;;;;9.90;7.50;;;20.40;85.80;;;;;;6189698;23;20396;-88
2021/06/16 02:21:54;;;;;;;8.43;7.47;;;20.40;86.20;;;;;;6190775;23;20401;-89
2021/06/16 02:24:21;;;;;;;8.50;7.60;;;20.40;86.30;;;;;;6190082;23;20436;-89
2021/06/16 02:26:49;;;;;;;6.97;6.27;;;20.50;86.80;;;;;;6191374;23;20473;-88
2021/06/16 02:29:17;;;;;;;8.73;7.17;;;20.30;87.10;;;;;;6189918;23;20443;-89
2021/06/16 02:31:44;;;;;;;8.70;6.63;;;20.30;87.70;;;;;;6188543;23;20405;-90
2021/06/16 02:34:12;;;;;;;11.13;6.90;;;20.30;88.20;;;;;;6189487;23;20436;-89
2021/06/16 02:36:43;;;;;;;8.13;6.27;;;20.30;88.00;;;;;;6196644;23;20408;-89
2021/06/16 02:39:13;;;;;;;7.50;6.80;;;20.30;88.40;;;;;;6189711;23;20480;-89
2021/06/16 02:41:41;;;;;;;7.97;7.10;;;20.30;88.60;;;;;;6189337;23;20408;-88
2021/06/16 02:44:08;;;;;;;8.20;6.70;;;20.20;88.90;;;;;;6205175;23;20451;-87
2021/06/16 02:46:37;;;;;;;8.53;6.67;;;20.20;89.10;;;;;;6204573;23;20475;-89
2021/06/16 02:49:07;;;;;;;9.73;6.87;;;20.10;89.50;;;;;;6209406;23;20440;-88
2021/06/16 02:51:37;;;;;;;8.10;7.40;;;20.10;90.10;;;;;;6193252;23;20768;-88
2021/06/16 02:54:09;;;;;;;7.60;6.43;;;20.00;90.30;;;;;;6194645;23;20424;-89
2021/06/16 02:56:38;;;;;;;9.33;6.63;;;20.00;90.70;;;;;;6195435;23;20427;-88
2021/06/16 02:59:06;;;;;;;11.17;6.83;;;19.90;91.10;;;;;;6200913;23;20416;-88
2021/06/16 03:01:36;;;;;;;10.90;6.93;;;19.90;91.20;;;;;;6195562;23;20758;-89
2021/06/16 03:04:04;;;;;;;12.77;6.70;;;19.80;91.30;;;;;;6193231;23;20435;-89
2021/06/16 03:06:32;;;;;;;8.33;6.90;;;19.90;91.20;;;;;;6204391;23;20436;-88
2021/06/16 03:09:01;;;;;;;7.73;6.90;;;19.80;91.40;;;;;;6211305;23;20473;-88
2021/06/16 03:11:32;;;;;;;11.93;7.43;;;19.80;91.60;;;;;;6211379;23;20411;-88
2021/06/16 03:14:01;;;;;;;15.37;7.77;;;19.80;92.00;;;;;;6211521;23;20412;-88
2021/06/16 03:16:29;;;;;;;8.47;7.00;;;19.70;92.20;;;;;;6210945;23;20474;-87
2021/06/16 03:18:58;;;;;;;11.20;9.30;;;19.80;92.30;;;;;;6195256;23;20403;-88
2021/06/16 03:21:26;;;;;;;7.90;6.93;;;19.80;92.40;;;;;;6203136;23;20411;-87
2021/06/16 03:23:53;;;;;;;8.80;7.90;;;19.80;92.50;;;;;;6213508;23;20418;-86
2021/06/16 03:26:23;;;;;;;8.93;8.10;;;19.70;92.80;;;;;;6198248;23;20450;-89
2021/06/16 03:28:50;;;;;;;7.67;6.93;;;19.70;93.00;;;;;;6192312;23;20426;-89
2021/06/16 03:31:18;;;;;;;7.87;7.00;;;19.60;93.30;;;;;;6199212;23;20402;-88
2021/06/16 03:33:46;;;;;;;8.20;7.17;;;19.60;93.70;;;;;;6193820;23;20431;-88
2021/06/16 03:36:15;;;;;;;8.90;7.93;;;19.60;93.60;;;;;;6210108;23;20482;-87
2021/06/16 03:38:43;;;;;;;8.73;7.67;;;19.60;93.60;;;;;;6205899;23;20677;-88
2021/06/16 03:41:11;;;;;;;9.73;8.83;;;19.60;93.70;;;;;;6201200;23;20415;-87
2021/06/16 03:43:39;;;;;;;9.93;8.47;;;19.60;93.70;;;;;;6209516;23;20822;-88
2021/06/16 03:46:08;;;;;;;12.03;8.47;;;19.60;93.70;;;;;;6206729;23;20476;-87
2021/06/16 03:48:37;;;;;;;12.70;8.00;;;19.60;93.80;;;;;;6211896;23;20426;-88
2021/06/16 03:51:04;;;;;;;11.77;8.70;;;19.50;94.00;;;;;;6208923;23;20426;-88
2021/06/16 03:53:33;;;;;;;10.40;8.20;;;19.50;94.10;;;;;;6198305;23;20414;-88
2021/06/16 03:56:01;;;;;;;10.93;8.57;;;19.50;94.40;;;;;;6203090;23;20389;-88
2021/06/16 03:58:28;;;;;;;8.83;6.93;;;19.50;94.20;;;;;;6205740;23;20409;-89
2021/06/16 04:00:55;;;;;;;10.00;8.97;;;19.50;94.50;;;;;;6193181;23;20403;-89
2021/06/16 04:03:22;;;;;;;9.03;7.73;;;19.50;94.70;;;;;;6192290;23;20469;-89
2021/06/16 04:05:49;;;;;;;9.03;7.93;;;19.60;94.30;;;;;;6191751;23;20417;-88
2021/06/16 04:08:16;;;;;;;10.33;9.03;;;19.60;94.10;;;;;;6190587;23;20445;-87
2021/06/16 04:10:46;;;;;;;9.50;8.70;;;19.60;94.30;;;;;;6191194;23;20413;-88
2021/06/16 04:13:13;;;;;;;8.40;7.50;;;19.60;94.40;;;;;;6189068;23;20829;-89
2021/06/16 04:15:40;;;;;;;12.53;8.50;;;19.60;94.50;;;;;;6188250;23;20410;-88
2021/06/16 04:18:08;;;;;;;8.63;7.70;;;19.70;94.20;;;;;;6191284;23;20399;-89
2021/06/16 04:20:35;;;;;;;9.90;7.50;;;19.70;94.10;;;;;;6188894;23;20429;-89
2021/06/16 04:23:03;;;;;;;9.67;8.03;;;19.70;94.10;;;;;;6188055;23;20457;-89
2021/06/16 04:25:29;;;;;;;10.03;8.70;;;19.70;94.00;;;;;;6188875;23;20412;-89
2021/06/16 04:27:58;;;;;;;11.00;7.90;;;19.80;94.20;;;;;;6188187;23;21190;-88
2021/06/16 04:30:26;;;;;;;17.33;10.10;;;19.80;94.00;;;;;;6189904;23;20445;-87
2021/06/16 04:32:53;;;;;;;14.33;9.60;;;19.90;93.90;;;;;;6194762;23;20440;-88
2021/06/16 04:35:20;;;;;;;20.30;8.90;;;19.80;94.00;;;;;;6189476;23;20489;-88
2021/06/16 04:37:47;;;;;;;11.83;8.80;;;19.90;94.10;;;;;;6189334;23;20398;-89
2021/06/16 04:40:15;;;;;;;12.33;9.33;;;20.00;93.90;;;;;;6194147;23;20408;-89
2021/06/16 04:42:42;;;;;;;15.90;9.70;;;20.10;93.70;;;;;;6190010;23;20478;-89
2021/06/16 04:45:11;;;;;;;14.03;9.00;;;20.10;93.20;;;;;;6196465;23;20438;-89
2021/06/16 04:47:37;;;;;;;11.57;9.10;;;20.10;93.40;;;;;;6212040;23;20473;-89
2021/06/16 04:50:07;;;;;;;14.57;9.20;;;20.20;93.00;;;;;;6213226;23;20415;-90
2021/06/16 04:52:34;;;;;;;12.30;9.47;;;20.30;92.90;;;;;;6210509;23;20449;-88
2021/06/16 04:55:01;;;;;;;14.50;8.83;;;20.30;92.70;;;;;;6212847;23;20407;-88
2021/06/16 04:57:28;;;;;;;12.13;9.10;;;20.30;92.70;;;;;;6213132;23;20381;-89
2021/06/16 04:59:55;;;;;;;12.40;8.83;;;20.40;92.20;;;;;;6197342;23;20404;-89
2021/06/16 05:02:24;;;;;;;13.40;9.07;;;20.50;92.40;;;;;;6204224;23;20408;-89
2021/06/16 05:04:55;;;;;;;14.33;9.00;;;20.50;92.20;;;;;;6198285;23;20612;-90
2021/06/16 05:07:25;;;;;;;21.93;9.00;;;20.60;91.90;;;;;;6194941;23;20841;-89
2021/06/16 05:09:51;;;;;;;13.70;8.30;;;20.70;91.50;;;;;;6191467;23;20891;-88
2021/06/16 05:12:18;;;;;;;11.83;7.60;;;20.70;91.10;;;;;;6198926;23;20491;-90
2021/06/16 05:14:45;;;;;;;8.27;7.20;;;20.80;91.00;;;;;;6204789;23;20439;-90
2021/06/16 05:17:12;;;;;;;13.27;7.47;;;20.90;90.70;;;;;;6204022;23;20483;-89
2021/06/16 05:19:45;;;;;;;12.40;8.07;;;20.90;90.20;;;;;;6200026;23;20448;-89
2021/06/16 05:22:15;;;;;;;11.37;7.23;;;21.00;90.00;;;;;;6197400;23;20401;-85
2021/06/16 05:24:44;;;;;;;11.30;8.93;;;21.30;89.70;;;;;;6211369;22;20531;-86
2021/06/16 05:27:14;;;;;;;16.07;8.83;;;21.60;87.90;;;;;;6217249;23;20476;-86
2021/06/16 05:29:40;;;;;;;11.50;8.03;;;22.10;85.40;;;;;;6225136;23;20405;-86
2021/06/16 05:32:08;;;;;;;12.93;8.40;;;22.50;83.80;;;;;;6220770;23;20406;-86
2021/06/16 05:34:34;;;;;;;13.17;9.00;;;22.90;82.30;;;;;;6198519;23;20437;-86
2021/06/16 05:37:03;;;;;;;10.23;8.13;;;23.20;80.20;;;;;;6188488;23;20411;-87
2021/06/16 05:39:31;;;;;;;12.63;7.73;;;23.40;78.70;;;;;;6186626;23;20405;-87
2021/06/16 05:41:58;;;;;;;10.90;7.97;;;23.70;77.90;;;;;;6188275;23;20419;-87
2021/06/16 05:44:25;;;;;;;13.70;7.57;;;24.00;76.60;;;;;;6187250;23;20433;-88
2021/06/16 05:46:52;;;;;;;11.83;6.97;;;24.40;75.40;;;;;;6193448;23;20416;-88
2021/06/16 05:49:18;;;;;;;12.60;7.40;;;24.80;73.50;;;;;;6210103;23;20408;-88
2021/06/16 05:51:45;;;;;;;8.73;6.47;;;25.30;71.20;;;;;;6189946;23;20391;-88
2021/06/16 05:54:13;;;;;;;9.47;6.70;;;25.60;68.90;;;;;;6187005;23;20434;-88
2021/06/16 05:56:41;;;;;;;11.63;7.03;;;25.70;67.50;;;;;;6185548;23;20409;-87
2021/06/16 05:59:08;;;;;;;9.33;6.10;;;26.00;66.80;;;;;;6187116;23;20465;-88
2021/06/16 06:01:36;;;;;;;10.87;6.00;;;26.30;65.60;;;;;;6210084;23;20406;-88
2021/06/16 06:04:03;;;;;;;10.77;7.17;;;26.50;64.90;;;;;;6208644;23;20623;-88
2021/06/16 06:06:30;;;;;;;10.20;6.37;;;26.60;63.50;;;;;;6189846;23;20406;-87
2021/06/16 06:08:57;;;;;;;11.63;7.40;;;26.80;63.00;;;;;;6210213;23;20468;-89
2021/06/16 06:11:25;;;;;;;9.80;6.20;;;26.80;62.30;;;;;;6193449;23;20397;-87
2021/06/16 06:13:52;;;;;;;11.73;6.70;;;26.90;62.60;;;;;;6209076;23;20427;-87
2021/06/16 06:16:19;;;;;;;14.63;7.47;;;27.20;61.00;;;;;;6202008;23;20470;-88
2021/06/16 06:18:46;;;;;;;8.90;6.77;;;27.50;60.20;;;;;;6201946;23;20394;-87
2021/06/16 06:21:13;;;;;;;10.57;6.87;;;27.50;59.50;;;;;;6185962;23;20406;-87
2021/06/16 06:23:40;;;;;;;11.50;6.50;;;27.60;59.30;;;;;;6197757;23;20429;-88
2021/06/16 06:26:06;;;;;;;8.97;7.17;;;27.70;58.70;;;;;;6209950;23;20414;-90
2021/06/16 06:28:36;;;;;;;8.20;6.37;;;28.10;57.60;;;;;;6200797;23;20518;-87
2021/06/16 06:31:03;;;;;;;13.93;7.10;;;28.30;57.10;;;;;;6207330;23;20420;-88
2021/06/16 06:33:41;;;;;;;6.97;5.30;;;28.60;56.50;;;;;;6212888;23;20410;-88
2021/06/16 06:36:08;;;;;;;7.73;5.70;;;28.80;55.90;;;;;;6208588;23;20426;-88
2021/06/16 06:38:35;;;;;;;7.47;5.27;;;29.00;55.00;;;;;;6191428;23;20425;-88
2021/06/16 06:41:01;;;;;;;8.60;5.30;;;28.90;55.50;;;;;;6189167;23;20406;-89
2021/06/16 06:43:28;;;;;;;8.27;5.10;;;29.00;54.90;;;;;;6189652;23;20421;-88
2021/06/16 06:45:56;;;;;;;7.87;5.03;;;29.10;54.30;;;;;;6185948;23;20410;-84
2021/06/16 06:48:23;;;;;;;10.23;5.27;;;29.40;54.00;;;;;;6187565;23;20498;-87
2021/06/16 06:50:50;;;;;;;8.20;5.57;;;29.60;53.60;;;;;;6183814;23;20406;-88
2021/06/16 06:53:17;;;;;;;9.97;6.10;;;29.60;53.70;;;;;;6183387;23;20436;-86
2021/06/16 06:55:44;;;;;;;7.20;5.50;;;30.00;53.60;;;;;;6185477;23;20436;-89
2021/06/16 06:58:10;;;;;;;10.07;5.43;;;30.30;53.00;;;;;;6185812;23;20402;-88
2021/06/16 07:00:37;;;;;;;9.60;6.07;;;30.20;52.70;;;;;;6186086;23;20417;-88
2021/06/16 07:03:06;;;;;;;12.60;6.83;;;30.50;52.90;;;;;;6184269;23;20950;-88
2021/06/16 07:05:32;;;;;;;12.60;5.63;;;30.90;52.10;;;;;;6184840;23;20406;-88
2021/06/16 07:07:59;;;;;;;8.80;5.83;;;31.10;51.60;;;;;;6185626;23;20437;-86
2021/06/16 07:10:26;;;;;;;12.60;5.80;;;31.50;50.60;;;;;;6185677;23;20417;-86
2021/06/16 07:12:53;;;;;;;9.30;6.00;;;32.00;50.20;;;;;;6186465;23;20416;-86
2021/06/16 07:15:20;;;;;;;9.43;6.10;;;32.30;49.00;;;;;;6185961;23;20430;-86
2021/06/16 07:17:46;;;;;;;9.47;5.60;;;32.80;49.00;;;;;;6184631;23;20449;-86
2021/06/16 07:20:17;;;;;;;7.97;5.47;;;32.80;47.40;;;;;;6209294;23;20410;-87
2021/06/16 07:22:44;;;;;;;7.80;5.20;;;32.80;47.30;;;;;;6190030;23;20406;-89
2021/06/16 07:25:11;;;;;;;7.03;4.60;;;32.80;46.30;;;;;;6197293;23;20433;-88
2021/06/16 07:27:38;;;;;;;8.97;5.77;;;32.50;47.00;;;;;;6190301;23;20782;-88
2021/06/16 07:30:06;;;;;;;9.23;5.10;;;32.20;47.40;;;;;;6185279;23;20425;-88
2021/06/16 07:32:33;;;;;;;10.40;5.27;;;32.40;47.50;;;;;;6186630;23;20417;-87
2021/06/16 07:35:00;;;;;;;8.30;5.37;;;32.60;47.00;;;;;;6185259;23;20452;-88
2021/06/16 07:37:28;;;;;;;9.40;4.87;;;33.10;46.60;;;;;;6185039;23;20402;-90
2021/06/16 07:39:55;;;;;;;10.47;5.33;;;33.30;45.40;;;;;;6187330;23;20406;-87
2021/06/16 07:42:22;;;;;;;8.73;4.80;;;33.70;45.60;;;;;;6195559;23;20405;-88
2021/06/16 07:44:48;;;;;;;7.30;4.70;;;34.00;45.00;;;;;;6191928;23;20422;-88
2021/06/16 07:47:17;;;;;;;7.33;4.50;;;34.10;44.40;;;;;;6188594;23;20406;-87
2021/06/16 07:49:44;;;;;;;8.37;4.80;;;33.90;43.80;;;;;;6192500;23;20383;-88
2021/06/16 07:52:11;;;;;;;8.03;5.13;;;33.60;44.10;;;;;;6203413;23;20406;-86
2021/06/16 07:54:39;;;;;;;7.17;4.73;;;33.40;44.90;;;;;;6193800;23;20421;-88
2021/06/16 07:57:07;;;;;;;8.30;5.43;;;33.80;44.50;;;;;;6198547;23;20526;-88
2021/06/16 07:59:33;;;;;;;8.00;3.97;;;34.00;44.50;;;;;;6186850;23;20409;-88
2021/06/16 08:02:00;;;;;;;11.63;6.10;;;34.40;44.00;;;;;;6188371;23;20408;-87
2021/06/16 08:04:27;;;;;;;8.03;4.80;;;34.80;43.90;;;;;;6186668;23;20430;-85
2021/06/16 08:06:53;;;;;;;7.50;4.20;;;35.10;42.90;;;;;;6187571;23;20484;-88
2021/06/16 08:09:20;;;;;;;7.10;4.07;;;35.20;42.70;;;;;;6191695;23;20434;-88
2021/06/16 08:11:49;;;;;;;6.17;4.37;;;35.40;42.40;;;;;;6202592;23;20410;-87
2021/06/16 08:14:16;;;;;;;7.23;4.27;;;35.50;41.90;;;;;;6191170;23;20426;-88
2021/06/16 08:16:43;;;;;;;8.40;4.50;;;35.80;40.40;;;;;;6191649;23;20410;-87
2021/06/16 08:19:10;;;;;;;7.57;4.93;;;36.10;40.40;;;;;;6187880;23;20905;-87
2021/06/16 08:21:37;;;;;;;5.53;4.60;;;36.30;39.60;;;;;;6197064;23;20413;-87
2021/06/16 08:24:04;;;;;;;5.50;4.70;;;36.10;39.40;;;;;;6205310;23;20441;-87
2021/06/16 08:26:31;;;;;;;7.50;3.57;;;35.70;39.40;;;;;;6202894;23;20416;-87
2021/06/16 08:28:59;;;;;;;9.00;4.73;;;35.80;39.30;;;;;;6210183;23;20442;-87
2021/06/16 08:31:25;;;;;;;5.93;4.33;;;35.90;39.20;;;;;;6214412;23;20397;-88
2021/06/16 08:33:52;;;;;;;5.80;4.50;;;35.80;39.20;;;;;;6206564;23;20457;-86
2021/06/16 08:36:20;;;;;;;6.90;5.10;;;35.50;39.80;;;;;;6189711;23;20410;-88
2021/06/16 08:38:47;;;;;;;5.13;3.90;;;35.80;39.60;;;;;;6191436;23;20881;-85
2021/06/16 08:41:15;;;;;;;9.67;5.00;;;36.20;39.00;;;;;;6189276;23;20417;-86
2021/06/16 08:43:47;;;;;;;7.07;5.50;;;36.90;38.60;;;;;;6190604;23;20422;-86
2021/06/16 08:46:16;;;;;;;7.73;5.10;;;37.60;37.50;;;;;;6188081;23;20398;-86
2021/06/16 08:48:44;;;;;;;10.50;5.17;;;37.50;37.30;;;;;;6190872;23;20807;-88
2021/06/16 08:51:15;;;;;;;8.27;5.37;;;38.10;36.50;;;;;;6189418;23;20402;-87
2021/06/16 08:53:42;;;;;;;5.27;3.60;;;39.00;35.40;;;;;;6200414;23;20425;-89
2021/06/16 08:56:09;;;;;;;7.53;4.20;;;39.60;33.70;;;;;;6213950;23;20422;-90
2021/06/16 08:58:37;;;;;;;7.50;4.17;;;38.80;34.10;;;;;;6209422;23;20410;-87
2021/06/16 09:01:08;;;;;;;6.70;3.93;;;38.30;35.30;;;;;;6200958;23;20406;-87
2021/06/16 09:03:44;;;;;;;6.67;3.83;;;38.80;33.90;;;;;;6210971;23;20426;-89
2021/06/16 09:06:12;;;;;;;6.17;3.63;;;38.80;33.60;;;;;;6195860;23;20410;-88
2021/06/16 09:08:53;;;;;;;9.77;4.67;;;39.00;32.80;;;;;;6200383;23;20421;-88
2021/06/16 09:11:20;;;;;;;8.00;3.40;;;39.50;32.20;;;;;;6208909;23;20409;-88
2021/06/16 09:13:48;;;;;;;7.33;4.13;;;39.20;32.20;;;;;;6209533;23;20498;-88
2021/06/16 09:16:27;;;;;;;6.60;3.40;;;38.80;32.50;;;;;;6206139;23;20469;-88
2021/06/16 09:18:56;;;;;;;8.57;3.90;;;38.50;32.10;;;;;;6205704;23;20382;-87
2021/06/16 09:21:34;;;;;;;8.40;3.93;;;37.70;33.50;;;;;;6194129;23;20402;-86
2021/06/16 09:24:01;;;;;;;5.60;3.77;;;37.30;34.90;;;;;;6188283;23;20433;-86
2021/06/16 09:26:32;;;;;;;8.47;4.10;;;37.10;35.00;;;;;;6196619;23;20413;-86
2021/06/16 09:28:59;;;;;;;6.93;4.17;;;38.10;34.40;;;;;;6189610;23;20755;-88
2021/06/16 09:31:26;;;;;;;10.17;6.20;;;39.20;33.60;;;;;;6189916;23;20429;-86
2021/06/16 09:33:56;;;;;;;5.60;3.57;;;39.20;32.80;;;;;;6188139;23;20437;-88
2021/06/16 09:36:24;;;;;;;7.00;3.50;;;39.70;32.20;;;;;;6188499;23;20417;-86
2021/06/16 09:38:53;;;;;;;4.83;3.20;;;40.00;31.50;;;;;;6197994;23;20470;-86
2021/06/16 09:41:22;;;;;;;6.53;4.03;;;40.10;31.00;;;;;;6201435;23;20410;-87
2021/06/16 09:43:54;;;;;;;7.20;3.77;;;39.60;31.00;;;;;;6188680;23;20433;-88
2021/06/16 09:46:20;;;;;;;7.47;3.93;;;39.60;31.50;;;;;;6190655;23;20390;-91
2021/06/16 09:48:49;;;;;;;5.17;3.70;;;40.00;31.30;;;;;;6192556;23;20445;-93
2021/06/16 09:51:23;;;;;;;6.10;4.10;;;40.20;31.30;;;;;;6189936;23;20437;-91
2021/06/16 09:53:58;;;;;;;8.37;3.90;;;39.90;31.00;;;;;;6209819;23;20409;-91
2021/06/16 09:56:26;;;;;;;8.33;4.20;;;39.80;32.10;;;;;;6194116;23;20493;-92
2021/06/16 09:58:53;;;;;;;5.53;4.30;;;40.10;31.90;;;;;;6197547;23;20409;-91
2021/06/16 10:01:20;;;;;;;5.70;3.50;;;40.70;30.90;;;;;;6196969;23;20952;-92
2021/06/16 10:03:47;;;;;;;6.30;4.10;;;41.20;30.30;;;;;;6194291;23;20814;-90
2021/06/16 10:06:15;;;;;;;6.70;4.07;;;42.00;29.60;;;;;;6191582;23;20468;-91
2021/06/16 10:08:45;;;;;;;6.83;3.77;;;42.80;29.70;;;;;;6196658;23;20457;-90
2021/06/16 10:11:15;;;;;;;6.10;3.70;;;43.40;28.20;;;;;;6207938;23;21011;-92
2021/06/16 10:13:43;;;;;;;6.60;3.57;;;43.30;28.20;;;;;;6200658;23;20412;-89
2021/06/16 10:16:10;;;;;;;6.10;3.70;;;43.20;28.00;;;;;;6212180;23;20397;-89
2021/06/16 10:18:41;;;;;;;6.50;3.90;;;43.00;27.80;;;;;;6201044;23;20417;-92
2021/06/16 10:21:20;;;;;;;7.53;3.40;;;42.40;28.30;;;;;;6200164;23;20398;-90
2021/06/16 10:24:03;;;;;;;6.63;3.60;;;43.20;28.80;;;;;;6200001;23;20433;-91
2021/06/16 10:26:35;;;;;;;6.30;5.03;;;43.30;28.60;;;;;;6191776;23;20401;-90
2021/06/16 10:29:17;;;;;;;6.07;3.63;;;42.70;28.40;;;;;;6206248;23;20428;-89
2021/06/16 10:31:53;;;;;;;6.57;4.07;;;42.90;28.80;;;;;;6214445;23;20393;-93
2021/06/16 10:34:24;;;;;;;8.03;3.87;;;42.70;27.90;;;;;;6211820;23;20413;-89
2021/06/16 10:37:09;;;;;;;4.80;3.50;;;42.90;28.10;;;;;;6209532;23;20412;-92
2021/06/16 10:40:40;;;;;;;6.43;3.60;;;42.80;28.20;;;;;;6197797;23;20430;-92
2021/06/16 10:43:28;;;;;;;5.47;3.33;;;43.70;28.30;;;;;;6198518;23;20477;-90
2021/06/16 10:46:01;;;;;;;4.70;3.50;;;44.00;27.80;;;;;;6202555;23;20417;-91
2021/06/16 10:48:49;;;;;;;5.23;3.00;;;44.00;27.30;;;;;;6201924;23;20417;-92
2021/06/16 10:51:48;;;;;;;5.67;3.73;;;44.00;27.50;;;;;;6199997;23;20412;-91
2021/06/16 10:54:34;;;;;;;8.60;3.73;;;44.00;26.50;;;;;;6198190;23;20484;-92
2021/06/16 10:57:23;;;;;;;6.03;3.77;;;44.20;26.50;;;;;;6199094;23;20496;-92
2021/06/16 11:00:09;;;;;;;5.50;4.50;;;43.90;26.50;;;;;;6194801;23;20413;-92
2021/06/16 11:03:03;;;;;;;5.00;4.07;;;44.00;25.90;;;;;;6195473;23;20374;-92
2021/06/16 11:05:44;;;;;;;4.17;3.53;;;44.60;25.90;;;;;;6193298;23;20418;-93
2021/06/16 11:08:31;;;;;;;4.90;3.93;;;44.70;25.90;;;;;;6199082;23;20420;-92
2021/06/16 11:11:02;;;;;;;6.43;3.77;;;43.50;26.40;;;;;;6193765;23;20400;-92
2021/06/16 11:13:46;;;;;;;6.03;4.20;;;43.50;26.80;;;;;;6204018;23;20445;-92
2021/06/16 11:16:54;;;;;;;4.67;3.23;;;44.00;27.10;;;;;;6212740;23;20414;-92
2021/06/16 11:19:30;;;;;;;7.30;3.50;;;44.60;26.40;;;;;;6195147;23;20431;-93
2021/06/16 11:22:06;;;;;;;4.80;3.63;;;44.90;25.90;;;;;;6194024;23;20444;-93
2021/06/16 11:25:03;;;;;;;7.20;4.03;;;45.10;25.70;;;;;;6202098;23;20524;-91
2021/06/16 11:27:57;;;;;;;6.20;3.67;;;45.40;25.10;;;;;;6202723;23;20417;-91
2021/06/16 11:30:42;;;;;;;6.07;4.00;;;45.70;25.10;;;;;;6197704;23;20430;-91
2021/06/16 11:33:31;;;;;;;7.80;3.90;;;45.70;24.90;;;;;;6197532;23;20417;-92
2021/06/16 11:35:59;;;;;;;8.90;3.40;;;45.60;25.70;;;;;;6192204;23;20410;-91
2021/06/16 11:38:30;;;;;;;6.70;4.10;;;45.20;25.20;;;;;;6200794;23;20429;-90
2021/06/16 11:41:01;;;;;;;6.03;4.20;;;44.20;25.70;;;;;;6192638;23;20402;-91
2021/06/16 11:43:37;;;;;;;6.40;4.00;;;43.50;26.70;;;;;;6193564;23;20821;-90
2021/06/16 11:46:14;;;;;;;4.73;3.57;;;43.40;26.20;;;;;;6189044;23;20935;-92
2021/06/16 11:48:42;;;;;;;6.07;3.70;;;43.00;27.80;;;;;;6188365;23;20904;-90
2021/06/16 11:51:09;;;;;;;5.67;3.57;;;43.20;26.80;;;;;;6207709;23;20394;-90
2021/06/16 11:53:39;;;;;;;5.40;4.30;;;42.80;27.00;;;;;;6214098;23;20453;-90
2021/06/16 11:56:09;;;;;;;8.47;4.03;;;43.30;26.90;;;;;;6214568;23;20396;-90
2021/06/16 11:58:38;;;;;;;5.63;3.80;;;43.20;26.70;;;;;;6212464;23;20410;-91
2021/06/16 12:01:11;;;;;;;5.93;4.00;;;43.20;26.70;;;;;;6214411;23;20396;-88
2021/06/16 12:03:41;;;;;;;5.10;3.50;;;43.50;26.70;;;;;;6213674;23;20406;-91
2021/06/16 12:06:09;;;;;;;4.80;3.57;;;43.90;26.20;;;;;;6211661;23;20394;-90
2021/06/16 12:08:36;;;;;;;6.40;4.10;;;44.70;25.90;;;;;;6208398;23;20406;-91
2021/06/16 12:11:20;;;;;;;5.87;3.80;;;45.80;24.80;;;;;;6204106;23;20410;-91
2021/06/16 12:13:55;;;;;;;4.70;3.60;;;46.00;24.50;;;;;;6199775;23;20809;-92
2021/06/16 12:16:29;;;;;;;4.43;3.60;;;45.50;24.60;;;;;;6191438;23;20460;-92
2021/06/16 12:19:18;;;;;;;5.77;3.70;;;44.50;25.10;;;;;;6188885;23;20808;-93
2021/06/16 12:21:53;;;;;;;4.80;3.63;;;44.10;25.60;;;;;;6189645;23;20410;-88
2021/06/16 12:24:21;;;;;;;5.90;3.67;;;43.50;25.50;;;;;;6187808;23;20437;-88
2021/06/16 12:27:00;;;;;;;8.23;4.80;;;44.30;25.90;;;;;;6193381;23;20406;-87
2021/06/16 12:29:26;;;;;;;4.97;3.97;;;43.80;25.40;;;;;;6212991;23;20441;-88
2021/06/16 12:31:58;;;;;;;4.57;4.03;;;43.70;25.80;;;;;;6190972;23;20408;-87
2021/06/16 12:34:33;;;;;;;5.10;3.70;;;42.90;25.60;;;;;;6189590;23;20421;-88
2021/06/16 12:37:09;;;;;;;5.40;3.63;;;41.40;26.40;;;;;;6191110;23;20444;-88
2021/06/16 12:39:36;;;;;;;5.37;3.60;;;39.90;28.00;;;;;;6190779;23;20409;-88
2021/06/16 12:42:06;;;;;;;5.50;3.97;;;40.70;28.30;;;;;;6187448;23;20417;-88
2021/06/16 12:44:38;;;;;;;7.73;3.70;;;41.80;27.30;;;;;;6204119;23;20625;-88
2021/06/16 12:47:10;;;;;;;6.27;4.17;;;42.70;27.20;;;;;;6201620;23;21125;-87
2021/06/16 12:49:39;;;;;;;5.50;4.07;;;43.80;25.80;;;;;;6200790;23;20440;-89
2021/06/16 12:52:07;;;;;;;6.00;4.07;;;43.20;26.20;;;;;;6187274;23;20420;-89
2021/06/16 12:54:36;;;;;;;6.27;3.47;;;42.50;27.10;;;;;;6187457;23;20940;-88
2021/06/16 12:57:07;;;;;;;7.60;4.30;;;42.20;27.30;;;;;;6185385;23;20402;-89
2021/06/16 12:59:38;;;;;;;4.83;3.50;;;42.50;27.50;;;;;;6188458;23;20448;-89
2021/06/16 13:02:08;;;;;;;6.03;3.30;;;42.10;27.50;;;;;;6186679;23;20429;-89
2021/06/16 13:04:52;;;;;;;5.00;3.87;;;42.20;27.50;;;;;;6186243;23;20421;-89
2021/06/16 13:07:22;;;;;;;6.93;3.40;;;41.30;27.50;;;;;;6193292;23;20421;-89
2021/06/16 13:10:03;;;;;;;6.33;3.57;;;41.40;27.40;;;;;;6194454;23;20442;-88
2021/06/16 13:12:30;;;;;;;4.60;3.33;;;41.80;26.90;;;;;;6195108;23;20406;-88
2021/06/16 13:15:03;;;;;;;6.57;3.93;;;41.10;26.70;;;;;;6194218;23;20445;-90
2021/06/16 13:17:41;;;;;;;5.30;3.70;;;40.70;27.30;;;;;;6194686;23;20484;-88
2021/06/16 13:20:09;;;;;;;4.80;3.80;;;40.50;27.80;;;;;;6195378;23;20397;-88
2021/06/16 13:22:37;;;;;;;5.67;3.87;;;40.30;27.70;;;;;;6195534;23;20410;-88
2021/06/16 13:25:05;;;;;;;4.60;3.87;;;39.50;28.30;;;;;;6201556;23;20418;-88
2021/06/16 13:27:47;;;;;;;4.87;3.70;;;39.70;28.80;;;;;;6202518;23;20437;-89
2021/06/16 13:30:14;;;;;;;8.33;4.17;;;40.50;29.10;;;;;;6198609;23;20496;-89
2021/06/16 13:32:43;;;;;;;6.63;3.70;;;40.60;28.50;;;;;;6191365;23;20428;-89
2021/06/16 13:35:10;;;;;;;6.43;3.60;;;40.50;28.80;;;;;;6184898;23;20472;-88
2021/06/16 13:37:37;;;;;;;5.03;3.63;;;40.10;29.10;;;;;;6185331;23;20932;-88
2021/06/16 13:40:05;;;;;;;6.30;4.03;;;39.70;29.70;;;;;;6186028;23;20408;-89
2021/06/16 13:42:31;;;;;;;5.03;4.07;;;39.10;29.90;;;;;;6193919;23;20402;-88
2021/06/16 13:44:58;;;;;;;5.03;3.80;;;38.90;30.00;;;;;;6186743;23;20476;-88
2021/06/16 13:47:25;;;;;;;8.40;4.40;;;39.10;29.90;;;;;;6187300;23;20397;-89
2021/06/16 13:49:53;;;;;;;6.00;3.57;;;38.20;29.80;;;;;;6187667;23;20450;-88
2021/06/16 13:52:22;;;;;;;5.87;4.53;;;38.50;30.00;;;;;;6186406;23;20401;-89
2021/06/16 13:54:49;;;;;;;6.40;3.83;;;38.70;30.60;;;;;;6160798;23;20488;-88
2021/06/16 13:57:16;;;;;;;5.00;4.30;;;38.40;31.10;;;;;;6198609;23;20405;-88
2021/06/16 13:59:43;;;;;;;5.50;4.13;;;37.90;32.30;;;;;;6188159;23;20414;-89
2021/06/16 14:02:11;;;;;;;5.30;3.70;;;37.50;33.20;;;;;;6193082;23;20402;-88
2021/06/16 14:04:37;;;;;;;4.80;3.70;;;37.60;33.20;;;;;;6184589;23;20426;-88
2021/06/16 14:07:06;;;;;;;7.17;4.17;;;38.00;32.20;;;;;;6185258;23;20732;-88
2021/06/16 14:09:32;;;;;;;6.53;4.93;;;38.10;32.10;;;;;;6188838;23;20402;-88
2021/06/16 14:11:59;;;;;;;5.30;4.23;;;38.60;32.10;;;;;;6197941;23;20410;-88
2021/06/16 14:14:26;;;;;;;6.90;4.43;;;38.90;31.30;;;;;;6194866;23;20426;-89
2021/06/16 14:16:53;;;;;;;4.80;3.20;;;39.30;30.70;;;;;;6190182;23;20889;-88
2021/06/16 14:19:19;;;;;;;5.00;3.80;;;40.00;30.50;;;;;;6188659;23;20907;-88
2021/06/16 14:21:46;;;;;;;6.23;4.30;;;39.80;30.30;;;;;;6189337;23;20409;-88
2021/06/16 14:24:14;;;;;;;6.67;4.20;;;39.10;30.80;;;;;;6188778;23;20756;-88
2021/06/16 14:26:41;;;;;;;7.00;3.80;;;38.90;31.40;;;;;;6194883;23;20409;-88
2021/06/16 14:29:08;;;;;;;5.10;4.27;;;38.40;31.90;;;;;;6202260;23;20734;-88
2021/06/16 14:31:36;;;;;;;5.90;4.50;;;37.80;33.00;;;;;;6189760;23;20438;-88
2021/06/16 14:34:03;;;;;;;7.87;4.33;;;36.90;33.80;;;;;;6186186;23;20501;-88
2021/06/16 14:36:30;;;;;;;10.20;4.40;;;36.30;34.30;;;;;;6185643;23;20394;-87
2021/06/16 14:38:57;;;;;;;8.07;5.00;;;35.80;35.70;;;;;;6197016;23;20410;-88
2021/06/16 14:41:25;;;;;;;7.20;4.73;;;35.30;35.60;;;;;;6199557;23;20460;-88
2021/06/16 14:43:51;;;;;;;9.10;4.70;;;34.90;36.20;;;;;;6194951;23;20457;-88
2021/06/16 14:46:18;;;;;;;10.10;4.10;;;34.90;37.30;;;;;;6210064;23;20386;-86
2021/06/16 14:48:45;;;;;;;7.07;4.27;;;34.90;36.30;;;;;;6211778;23;20409;-88